Time;durP1;ratioP1;P1;durP2;ratioP2;P2;SDS_P1;SDS_P2;PMS_P1;PMS_P2;Temp;Humidity;BMP_temperature;BMP_pressure;BME280_temperature;BME280_humidity;BME280_pressure;Samples;Min_cycle;Max_cycle;Signal;HPM_P1;HPM_P2
2022/06/13 00:00:03;;;;;;;;;;;14.50;99.90;;;;;;5095723;27;38215;-56
2022/06/13 00:02:30;;;;;;;;;;;14.50;99.90;;;;;;5096825;27;36031;-56
2022/06/13 00:04:58;;;;;;;;;;;14.50;99.90;;;;;;5096218;27;36572;-56
2022/06/13 00:07:26;;;;;;;;;;;14.50;99.90;;;;;;5096423;27;38077;-56
2022/06/13 00:09:54;;;;;;;;;;;14.40;99.90;;;;;;5096044;27;37701;-56
2022/06/13 00:12:21;;;;;;;;;;;14.40;99.90;;;;;;5095893;27;36077;-55
2022/06/13 00:14:48;;;;;;;;;;;14.40;99.90;;;;;;5095688;27;36248;-56
2022/06/13 00:17:15;;;;;;;;;;;14.40;99.90;;;;;;5095749;27;36610;-56
2022/06/13 00:19:42;;;;;;;;;;;14.40;99.90;;;;;;5096411;27;39404;-56
2022/06/13 00:22:09;;;;;;;;;;;14.40;99.90;;;;;;5095968;27;38160;-55
2022/06/13 00:24:38;;;;;;;;;;;14.40;99.90;;;;;;5095538;27;36895;-56
2022/06/13 00:27:05;;;;;;;;;;;14.40;99.90;;;;;;5096099;27;40381;-56
2022/06/13 00:29:32;;;;;;;;;;;14.40;99.90;;;;;;5095558;27;38065;-56
2022/06/13 00:31:59;;;;;;;;;;;14.40;99.90;;;;;;5095775;27;37054;-56
2022/06/13 00:34:27;;;;;;;;;;;14.40;99.90;;;;;;5095337;27;36941;-56
2022/06/13 00:36:54;;;;;;;;;;;14.40;99.90;;;;;;5094620;27;36480;-55
2022/06/13 00:39:21;;;;;;;;;;;14.50;99.90;;;;;;5093836;27;39445;-56
2022/06/13 00:41:49;;;;;;;;;;;14.50;99.90;;;;;;5094209;27;37630;-56
2022/06/13 00:44:19;;;;;;;;;;;14.40;99.90;;;;;;5095093;27;36211;-56
2022/06/13 00:46:46;;;;;;;;;;;14.50;99.90;;;;;;5094063;27;37851;-56
2022/06/13 00:49:14;;;;;;;;;;;14.50;99.90;;;;;;5095379;28;36856;-56
2022/06/13 00:51:44;;;;;;;;;;;14.50;99.90;;;;;;5095064;27;37789;-56
2022/06/13 00:54:12;;;;;;;;;;;14.40;99.90;;;;;;5093307;27;36642;-57
2022/06/13 00:56:39;;;;;;;;;;;14.50;99.90;;;;;;5093571;27;37428;-55
2022/06/13 00:59:14;;;;;;;;;;;14.40;99.90;;;;;;5092599;27;38154;-56
2022/06/13 01:01:41;;;;;;;;;;;14.50;99.90;;;;;;5093757;27;37858;-56
2022/06/13 01:04:09;;;;;;;;;;;14.50;99.90;;;;;;5095749;27;36395;-57
2022/06/13 01:06:37;;;;;;;;;;;14.50;99.90;;;;;;5093332;27;38331;-56
2022/06/13 01:09:06;;;;;;;;;;;14.50;99.90;;;;;;5094312;27;36706;-56
2022/06/13 01:11:33;;;;;;;;;;;14.50;99.90;;;;;;5093949;27;38473;-55
2022/06/13 01:14:18;;;;;;;;;;;14.50;99.90;;;;;;5093662;27;36244;-55
2022/06/13 01:16:53;;;;;;;;;;;14.50;99.90;;;;;;5083285;27;36594;-56
2022/06/13 01:19:33;;;;;;;;;;;14.50;99.90;;;;;;5094090;27;37734;-56
2022/06/13 01:22:04;;;;;;;;;;;14.50;99.90;;;;;;5094964;27;35935;-56
2022/06/13 01:25:04;;;;;;;;;;;14.50;99.90;;;;;;5095769;27;36059;-56
2022/06/13 01:27:46;;;;;;;;;;;14.50;99.90;;;;;;5051508;28;37567;-55
2022/06/13 01:30:32;;;;;;;;;;;14.50;99.90;;;;;;5050135;28;37954;-55
2022/06/13 01:33:04;;;;;;;;;;;14.50;99.90;;;;;;5078921;27;38421;-56
2022/06/13 01:35:37;;;;;;;;;;;14.50;99.90;;;;;;5091760;28;37323;-55
2022/06/13 01:38:08;;;;;;;;;;;14.50;99.90;;;;;;5092831;27;37950;-56
2022/06/13 01:40:43;;;;;;;;;;;14.50;99.90;;;;;;5093618;27;38479;-56
2022/06/13 01:43:12;;;;;;;;;;;14.50;99.90;;;;;;5093276;27;37228;-55
2022/06/13 01:45:42;;;;;;;;;;;14.50;99.90;;;;;;5091421;27;37371;-56
2022/06/13 01:48:13;;;;;;;;;;;14.60;99.90;;;;;;5094289;27;38380;-55
2022/06/13 01:50:44;;;;;;;;;;;14.60;99.90;;;;;;5093029;27;39530;-55
2022/06/13 01:53:17;;;;;;;;;;;14.60;99.90;;;;;;5093856;27;37375;-55
2022/06/13 01:55:46;;;;;;;;;;;14.60;99.90;;;;;;5093637;27;37090;-55
2022/06/13 01:58:16;;;;;;;;;;;14.60;99.90;;;;;;5094061;28;38572;-55
2022/06/13 02:00:46;;;;;;;;;;;14.60;99.90;;;;;;5092901;27;37924;-56
2022/06/13 02:03:17;;;;;;;;;;;14.60;99.90;;;;;;5093727;27;38993;-56
2022/06/13 02:05:46;;;;;;;;;;;14.60;99.90;;;;;;5094806;27;36162;-55
2022/06/13 02:08:15;;;;;;;;;;;14.60;99.90;;;;;;5094888;28;37474;-56
2022/06/13 02:10:44;;;;;;;;;;;14.60;99.90;;;;;;5093768;27;37742;-56
2022/06/13 02:13:13;;;;;;;;;;;14.60;99.90;;;;;;5093325;27;37295;-56
2022/06/13 02:15:41;;;;;;;;;;;14.60;99.90;;;;;;5094136;27;36520;-55
2022/06/13 02:18:11;;;;;;;;;;;14.60;99.90;;;;;;5093608;27;37580;-55
2022/06/13 02:20:40;;;;;;;;;;;14.60;99.90;;;;;;5093817;28;36835;-55
2022/06/13 02:23:10;;;;;;;;;;;14.60;99.90;;;;;;5093183;27;38334;-56
2022/06/13 02:25:43;;;;;;;;;;;14.60;99.90;;;;;;5093522;27;36560;-56
2022/06/13 02:28:13;;;;;;;;;;;14.60;99.90;;;;;;5092994;27;39831;-56
2022/06/13 02:30:43;;;;;;;;;;;14.60;99.90;;;;;;5092888;28;38914;-55
2022/06/13 02:33:12;;;;;;;;;;;14.60;99.90;;;;;;5093631;28;37956;-56
2022/06/13 02:35:44;;;;;;;;;;;14.60;99.90;;;;;;5093016;27;36320;-55
2022/06/13 02:38:13;;;;;;;;;;;14.70;99.90;;;;;;5093520;28;38104;-56
2022/06/13 02:40:44;;;;;;;;;;;14.70;99.90;;;;;;5093363;27;36502;-55
2022/06/13 02:43:13;;;;;;;;;;;14.70;99.90;;;;;;5093153;27;37147;-56
2022/06/13 02:45:44;;;;;;;;;;;14.70;99.90;;;;;;5092703;27;37711;-55
2022/06/13 02:48:13;;;;;;;;;;;14.70;99.90;;;;;;5093602;27;37990;-55
2022/06/13 02:50:47;;;;;;;;;;;14.70;99.90;;;;;;5093453;27;36876;-55
2022/06/13 02:53:16;;;;;;;;;;;14.70;99.90;;;;;;5092461;27;37998;-56
2022/06/13 02:55:47;;;;;;;;;;;14.70;99.90;;;;;;5093279;27;35321;-56
2022/06/13 02:58:19;;;;;;;;;;;14.70;99.90;;;;;;5094127;27;37446;-56
2022/06/13 03:00:52;;;;;;;;;;;14.70;99.90;;;;;;5091660;27;38148;-56
2022/06/13 03:03:21;;;;;;;;;;;14.70;99.90;;;;;;5095450;27;38360;-56
2022/06/13 03:06:01;;;;;;;;;;;14.70;99.90;;;;;;5096544;27;36593;-55
2022/06/13 03:08:35;;;;;;;;;;;14.70;99.90;;;;;;5097453;27;37804;-56
2022/06/13 03:11:05;;;;;;;;;;;14.70;99.90;;;;;;5095668;28;37657;-55
2022/06/13 03:13:38;;;;;;;;;;;14.70;99.90;;;;;;5095801;27;37056;-55
2022/06/13 03:16:10;;;;;;;;;;;14.60;99.90;;;;;;5096411;27;37018;-55
2022/06/13 03:18:44;;;;;;;;;;;14.70;99.90;;;;;;5096927;27;38187;-56
2022/06/13 03:21:17;;;;;;;;;;;14.70;99.90;;;;;;5097148;27;38104;-55
2022/06/13 03:23:45;;;;;;;;;;;14.60;99.90;;;;;;5095967;27;37236;-55
2022/06/13 03:26:15;;;;;;;;;;;14.60;99.90;;;;;;5095385;27;37916;-55
2022/06/13 03:28:45;;;;;;;;;;;14.60;99.90;;;;;;5097502;27;38156;-55
2022/06/13 03:31:15;;;;;;;;;;;14.50;99.90;;;;;;5096771;27;36714;-56
2022/06/13 03:33:44;;;;;;;;;;;14.50;99.90;;;;;;5095693;27;35932;-55
2022/06/13 03:36:13;;;;;;;;;;;14.50;99.90;;;;;;5095986;27;37098;-55
2022/06/13 03:38:45;;;;;;;;;;;14.50;99.90;;;;;;5095922;27;37796;-56
2022/06/13 03:41:15;;;;;;;;;;;14.50;99.90;;;;;;5096929;27;38153;-56
2022/06/13 03:43:44;;;;;;;;;;;14.50;99.90;;;;;;5096344;27;37251;-55
2022/06/13 03:46:16;;;;;;;;;;;14.50;99.90;;;;;;5096014;27;36232;-55
2022/06/13 03:48:46;;;;;;;;;;;14.50;99.90;;;;;;5095837;27;37748;-56
2022/06/13 03:51:15;;;;;;;;;;;14.50;99.90;;;;;;5096173;27;39477;-56
2022/06/13 03:53:45;;;;;;;;;;;14.50;99.90;;;;;;5095144;27;36076;-56
2022/06/13 03:56:15;;;;;;;;;;;14.50;99.90;;;;;;5096950;27;36554;-56
2022/06/13 03:58:45;;;;;;;;;;;14.50;99.90;;;;;;5095263;27;37528;-55
2022/06/13 04:01:13;;;;;;;;;;;14.50;99.90;;;;;;5095880;27;38588;-56
2022/06/13 04:03:41;;;;;;;;;;;14.50;99.90;;;;;;5096207;27;37029;-55
2022/06/13 04:06:23;;;;;;;;;;;14.70;99.90;;;;;;5095196;27;37246;-55
2022/06/13 04:08:52;;;;;;;;;;;14.70;99.90;;;;;;5095506;27;37794;-55
2022/06/13 04:11:23;;;;;;;;;;;14.80;99.90;;;;;;5095600;27;37905;-56
2022/06/13 04:13:56;;;;;;;;;;;14.80;99.90;;;;;;5094802;27;37091;-56
2022/06/13 04:16:28;;;;;;;;;;;14.80;99.90;;;;;;5095130;27;36548;-56
2022/06/13 04:19:04;;;;;;;;;;;14.80;99.90;;;;;;5095221;27;39308;-55
2022/06/13 04:21:33;;;;;;;;;;;14.80;99.90;;;;;;5094318;27;39034;-55
2022/06/13 04:24:09;;;;;;;;;;;14.80;99.90;;;;;;5095086;27;38627;-55
2022/06/13 04:26:40;;;;;;;;;;;14.90;99.90;;;;;;5095131;27;37770;-55
2022/06/13 04:29:10;;;;;;;;;;;14.90;99.90;;;;;;5096152;27;38694;-56
2022/06/13 04:31:38;;;;;;;;;;;14.90;99.90;;;;;;5094619;27;38151;-56
2022/06/13 04:34:08;;;;;;;;;;;14.90;99.90;;;;;;5094995;27;37877;-56
2022/06/13 04:36:35;;;;;;;;;;;15.00;99.90;;;;;;5095090;27;37110;-57
2022/06/13 04:39:05;;;;;;;;;;;15.00;99.90;;;;;;5094231;27;37495;-56
2022/06/13 04:41:36;;;;;;;;;;;15.00;99.90;;;;;;5094287;27;38538;-56
2022/06/13 04:44:04;;;;;;;;;;;15.10;99.90;;;;;;5093534;27;39637;-56
2022/06/13 04:46:32;;;;;;;;;;;15.10;99.90;;;;;;5093349;27;36334;-55
2022/06/13 04:49:00;;;;;;;;;;;15.20;99.90;;;;;;5094446;27;37808;-56
2022/06/13 04:51:30;;;;;;;;;;;15.40;99.90;;;;;;5093490;27;38511;-57
2022/06/13 04:54:00;;;;;;;;;;;15.50;99.90;;;;;;5091769;27;35813;-58
2022/06/13 04:56:27;;;;;;;;;;;15.50;99.90;;;;;;5095151;27;36138;-57
2022/06/13 04:58:57;;;;;;;;;;;15.50;99.90;;;;;;5093631;27;37467;-57
2022/06/13 05:01:27;;;;;;;;;;;15.40;99.90;;;;;;5095122;27;39373;-58
2022/06/13 05:03:54;;;;;;;;;;;15.40;99.90;;;;;;5094322;27;38233;-58
2022/06/13 05:06:24;;;;;;;;;;;15.30;99.90;;;;;;5093223;27;36276;-57
2022/06/13 05:08:53;;;;;;;;;;;15.20;99.90;;;;;;5094241;27;38460;-58
2022/06/13 05:11:23;;;;;;;;;;;15.10;99.90;;;;;;5092502;27;38031;-57
2022/06/13 05:13:52;;;;;;;;;;;15.10;99.90;;;;;;5095498;27;38417;-56
2022/06/13 05:16:25;;;;;;;;;;;15.00;99.90;;;;;;5093994;28;35158;-58
2022/06/13 05:19:01;;;;;;;;;;;15.00;99.90;;;;;;5094442;27;40297;-58
2022/06/13 05:21:37;;;;;;;;;;;15.10;99.90;;;;;;5094685;28;37611;-57
2022/06/13 05:24:15;;;;;;;;;;;15.10;99.90;;;;;;5093838;27;37786;-58
2022/06/13 05:26:42;;;;;;;;;;;15.00;99.90;;;;;;5093896;27;36538;-57
2022/06/13 05:29:09;;;;;;;;;;;15.10;99.90;;;;;;5094829;27;36464;-58
2022/06/13 05:31:38;;;;;;;;;;;15.30;99.90;;;;;;5093483;27;38668;-58
2022/06/13 05:34:05;;;;;;;;;;;15.40;99.90;;;;;;5094843;27;37353;-58
2022/06/13 05:36:33;;;;;;;;;;;15.40;99.90;;;;;;5093476;27;36417;-58
2022/06/13 05:39:01;;;;;;;;;;;15.40;99.90;;;;;;5094958;27;38288;-58
2022/06/13 05:41:28;;;;;;;;;;;15.40;99.90;;;;;;5094509;27;36665;-58
2022/06/13 05:43:55;;;;;;;;;;;15.30;99.90;;;;;;5090048;27;37706;-58
2022/06/13 05:46:25;;;;;;;;;;;15.20;99.90;;;;;;5093282;27;38507;-58
2022/06/13 05:48:54;;;;;;;;;;;15.20;99.90;;;;;;5091671;27;38519;-57
2022/06/13 05:51:21;;;;;;;;;;;15.20;99.90;;;;;;5091547;27;39450;-58
2022/06/13 05:53:48;;;;;;;;;;;15.30;99.90;;;;;;5092244;28;38053;-58
2022/06/13 05:56:15;;;;;;;;;;;15.30;99.90;;;;;;5093844;27;36667;-58
2022/06/13 05:58:42;;;;;;;;;;;15.20;99.90;;;;;;5092671;28;37773;-57
2022/06/13 06:01:12;;;;;;;;;;;15.40;99.90;;;;;;5093082;28;37853;-58
2022/06/13 06:03:39;;;;;;;;;;;15.70;99.90;;;;;;5093206;27;37737;-57
2022/06/13 06:06:11;;;;;;;;;;;15.90;99.90;;;;;;5094646;27;36672;-58
2022/06/13 06:08:38;;;;;;;;;;;16.20;99.90;;;;;;5094708;27;38685;-58
2022/06/13 06:11:05;;;;;;;;;;;16.40;99.90;;;;;;5092993;27;38014;-58
2022/06/13 06:13:32;;;;;;;;;;;16.50;99.90;;;;;;5094486;28;37407;-58
2022/06/13 06:16:01;;;;;;;;;;;16.60;99.90;;;;;;5094018;27;37594;-58
2022/06/13 06:18:28;;;;;;;;;;;16.60;99.90;;;;;;5088703;27;37887;-58
2022/06/13 06:20:56;;;;;;;;;;;16.80;99.90;;;;;;5088170;27;37685;-58
2022/06/13 06:23:24;;;;;;;;;;;16.90;99.90;;;;;;5088739;27;36591;-57
2022/06/13 06:25:51;;;;;;;;;;;17.10;99.90;;;;;;5088592;28;36351;-58
2022/06/13 06:28:19;;;;;;;;;;;17.30;99.90;;;;;;5088534;27;38173;-56
2022/06/13 06:30:46;;;;;;;;;;;17.40;99.90;;;;;;5089692;27;37892;-55
2022/06/13 06:33:13;;;;;;;;;;;17.50;99.90;;;;;;5087252;27;37215;-56
2022/06/13 06:35:41;;;;;;;;;;;17.70;99.30;;;;;;5088822;27;36954;-56
2022/06/13 06:38:09;;;;;;;;;;;17.80;99.40;;;;;;5088310;28;37518;-57
2022/06/13 06:40:38;;;;;;;;;;;17.90;99.80;;;;;;5088916;28;38244;-56
2022/06/13 06:43:05;;;;;;;;;;;18.00;99.40;;;;;;5087773;27;36934;-56
2022/06/13 06:45:32;;;;;;;;;;;18.10;99.50;;;;;;5088815;27;36312;-56
2022/06/13 06:47:59;;;;;;;;;;;18.20;99.30;;;;;;5087839;27;40736;-56
2022/06/13 06:50:27;;;;;;;;;;;18.10;98.70;;;;;;5087229;28;38570;-56
2022/06/13 06:52:54;;;;;;;;;;;18.00;98.60;;;;;;5087881;28;38284;-55
2022/06/13 07:00:53;;;;;;;;;;;17.70;97.70;;;;;;5088149;28;39811;-56
2022/06/13 07:03:20;;;;;;;;;;;17.40;98.20;;;;;;5088306;27;36849;-56
2022/06/13 07:05:49;;;;;;;;;;;17.20;99.20;;;;;;5087306;27;37006;-57
2022/06/13 07:08:17;;;;;;;;;;;17.00;99.70;;;;;;5088897;27;37521;-57
2022/06/13 07:10:45;;;;;;;;;;;16.80;99.90;;;;;;5087532;27;36619;-56
2022/06/13 07:13:14;;;;;;;;;;;16.60;99.90;;;;;;5089206;27;37962;-56
2022/06/13 07:15:41;;;;;;;;;;;16.60;99.90;;;;;;5087615;28;35106;-56
2022/06/13 07:18:08;;;;;;;;;;;16.80;99.90;;;;;;5087969;27;37536;-56
2022/06/13 07:20:35;;;;;;;;;;;17.00;99.90;;;;;;5088283;27;39611;-55
2022/06/13 07:23:02;;;;;;;;;;;17.30;99.90;;;;;;5087632;27;37124;-56
2022/06/13 07:25:31;;;;;;;;;;;17.30;99.90;;;;;;5087474;27;35116;-57
2022/06/13 07:27:58;;;;;;;;;;;17.20;99.90;;;;;;5086726;27;36476;-56
2022/06/13 07:30:28;;;;;;;;;;;17.00;98.70;;;;;;5087853;27;38764;-56
2022/06/13 07:32:56;;;;;;;;;;;16.70;99.40;;;;;;5086343;27;36128;-56
2022/06/13 07:35:25;;;;;;;;;;;16.60;99.70;;;;;;5087012;27;35667;-56
2022/06/13 07:40:37;;;;;;;;;;;16.40;99.90;;;;;;5088028;28;38819;-56
2022/06/13 07:43:05;;;;;;;;;;;16.40;99.90;;;;;;5087697;27;35997;-56
2022/06/13 07:45:36;;;;;;;;;;;16.50;99.90;;;;;;5086961;28;36784;-56
2022/06/13 07:48:03;;;;;;;;;;;16.80;99.90;;;;;;5087955;27;37916;-57
2022/06/13 07:50:30;;;;;;;;;;;17.10;99.90;;;;;;5090193;27;39102;-57
2022/06/13 07:52:57;;;;;;;;;;;17.30;99.90;;;;;;5090591;27;37713;-56
2022/06/13 07:55:25;;;;;;;;;;;17.60;99.90;;;;;;5090788;27;37529;-57
2022/06/13 07:57:52;;;;;;;;;;;17.80;99.90;;;;;;5091378;27;36535;-57
2022/06/13 08:00:21;;;;;;;;;;;18.00;98.70;;;;;;5091084;27;39293;-56
2022/06/13 08:02:50;;;;;;;;;;;18.10;97.50;;;;;;5090485;27;37371;-57
2022/06/13 08:05:18;;;;;;;;;;;18.30;97.80;;;;;;5090737;27;36978;-57
2022/06/13 08:07:45;;;;;;;;;;;18.40;97.50;;;;;;5091040;27;38433;-57
2022/06/13 08:10:12;;;;;;;;;;;18.50;97.10;;;;;;5090591;27;38531;-57
2022/06/13 08:12:39;;;;;;;;;;;18.60;96.00;;;;;;5090735;27;38465;-57
2022/06/13 08:15:07;;;;;;;;;;;18.50;96.20;;;;;;5091288;27;36073;-57
2022/06/13 08:17:34;;;;;;;;;;;18.50;96.90;;;;;;5088828;28;39220;-57
2022/06/13 08:20:03;;;;;;;;;;;18.60;95.10;;;;;;5090437;27;37592;-57
2022/06/13 08:22:32;;;;;;;;;;;18.60;95.00;;;;;;5090282;27;37102;-57
2022/06/13 08:24:59;;;;;;;;;;;18.50;94.50;;;;;;5088718;27;34643;-56
2022/06/13 08:27:26;;;;;;;;;;;18.20;92.10;;;;;;5090146;27;37704;-56
2022/06/13 08:29:53;;;;;;;;;;;18.10;93.70;;;;;;5089841;27;37779;-56
2022/06/13 08:32:20;;;;;;;;;;;18.20;94.00;;;;;;5090789;27;37876;-57
2022/06/13 08:34:47;;;;;;;;;;;18.30;94.30;;;;;;5089891;27;37032;-56
2022/06/13 08:37:16;;;;;;;;;;;18.40;94.70;;;;;;5091289;27;38546;-56
2022/06/13 08:39:43;;;;;;;;;;;18.60;92.80;;;;;;5088844;28;38114;-56
2022/06/13 08:42:13;;;;;;;;;;;18.70;93.40;;;;;;5089916;27;36575;-57
2022/06/13 08:44:55;;;;;;;;;;;18.80;92.00;;;;;;5089742;28;35902;-56
2022/06/13 08:47:27;;;;;;;;;;;18.70;93.20;;;;;;5083781;28;39061;-57
2022/06/13 08:49:59;;;;;;;;;;;18.60;92.70;;;;;;5088699;28;38609;-56
2022/06/13 08:52:29;;;;;;;;;;;18.70;93.00;;;;;;5090110;27;38578;-57
2022/06/13 08:55:01;;;;;;;;;;;18.80;93.60;;;;;;5088842;27;35032;-56
2022/06/13 08:57:30;;;;;;;;;;;18.90;92.60;;;;;;5089201;27;37625;-56
2022/06/13 09:00:03;;;;;;;;;;;19.10;94.10;;;;;;5089963;27;38742;-56
2022/06/13 09:02:35;;;;;;;;;;;19.20;90.30;;;;;;5090219;27;38857;-56
2022/06/13 09:05:06;;;;;;;;;;;19.30;91.10;;;;;;5090186;27;36624;-56
2022/06/13 09:07:37;;;;;;;;;;;19.40;91.70;;;;;;5089887;27;37799;-57
2022/06/13 09:10:07;;;;;;;;;;;19.50;90.00;;;;;;5089484;27;38588;-56
2022/06/13 09:12:37;;;;;;;;;;;19.40;86.40;;;;;;5089407;27;36153;-56
2022/06/13 09:15:07;;;;;;;;;;;19.20;85.80;;;;;;5090027;27;37527;-56
2022/06/13 09:17:38;;;;;;;;;;;18.90;89.90;;;;;;5088743;27;38536;-56
2022/06/13 09:20:10;;;;;;;;;;;18.90;91.10;;;;;;5087405;27;36780;-56
2022/06/13 09:22:41;;;;;;;;;;;19.00;90.00;;;;;;5088375;27;37546;-57
2022/06/13 09:25:10;;;;;;;;;;;18.90;88.10;;;;;;5088962;27;36560;-57
2022/06/13 09:27:38;;;;;;;;;;;18.70;86.50;;;;;;5088740;28;36511;-56
2022/06/13 09:30:07;;;;;;;;;;;18.60;88.20;;;;;;5088661;27;36657;-56
2022/06/13 09:32:37;;;;;;;;;;;18.50;90.70;;;;;;5088243;27;37959;-57
2022/06/13 09:35:09;;;;;;;;;;;18.40;91.10;;;;;;5089545;27;37443;-56
2022/06/13 09:37:39;;;;;;;;;;;18.30;91.60;;;;;;5089800;27;37119;-56
2022/06/13 09:40:08;;;;;;;;;;;18.20;93.80;;;;;;5089157;27;37635;-56
2022/06/13 09:42:45;;;;;;;;;;;18.20;92.30;;;;;;5089586;27;37173;-56
2022/06/13 09:45:27;;;;;;;;;;;18.20;92.90;;;;;;5089184;27;36529;-57
2022/06/13 09:48:00;;;;;;;;;;;18.20;93.70;;;;;;5088404;28;37147;-56
2022/06/13 09:50:30;;;;;;;;;;;18.40;93.00;;;;;;5088789;28;37693;-56
2022/06/13 09:53:02;;;;;;;;;;;18.40;91.70;;;;;;5087532;27;40680;-56
2022/06/13 09:55:34;;;;;;;;;;;18.30;91.90;;;;;;5088903;27;33538;-56
2022/06/13 09:58:06;;;;;;;;;;;18.20;91.90;;;;;;5088595;27;38245;-56
2022/06/13 10:00:38;;;;;;;;;;;18.10;93.90;;;;;;5088606;28;31189;-56
2022/06/13 10:03:08;;;;;;;;;;;18.20;93.50;;;;;;5087384;27;38360;-56
2022/06/13 10:05:37;;;;;;;;;;;18.10;93.00;;;;;;5087836;27;35931;-56
2022/06/13 10:08:22;;;;;;;;;;;18.00;92.60;;;;;;5087295;27;37514;-55
2022/06/13 10:10:59;;;;;;;;;;;18.00;92.70;;;;;;5085838;27;38274;-57
2022/06/13 10:13:29;;;;;;;;;;;18.20;94.20;;;;;;5087714;27;36971;-56
2022/06/13 10:16:03;;;;;;;;;;;18.50;93.60;;;;;;5088925;27;36365;-56
2022/06/13 10:18:43;;;;;;;;;;;18.50;92.40;;;;;;5088729;27;37623;-56
2022/06/13 10:21:15;;;;;;;;;;;18.40;91.10;;;;;;5087994;28;38129;-56
2022/06/13 10:23:44;;;;;;;;;;;18.20;91.70;;;;;;5089374;27;37208;-56
2022/06/13 10:26:16;;;;;;;;;;;18.20;93.50;;;;;;5089220;27;35130;-55
2022/06/13 10:28:58;;;;;;;;;;;18.20;93.40;;;;;;5088389;28;36682;-56
2022/06/13 10:31:30;;;;;;;;;;;18.10;92.40;;;;;;5086332;27;37902;-56
2022/06/13 10:34:03;;;;;;;;;;;18.10;92.90;;;;;;5089924;27;37676;-56
2022/06/13 10:36:34;;;;;;;;;;;18.20;93.70;;;;;;5088269;27;36924;-56
2022/06/13 10:39:02;;;;;;;;;;;18.30;93.70;;;;;;5088427;27;37189;-56
2022/06/13 10:41:31;;;;;;;;;;;18.40;93.20;;;;;;5087752;27;40353;-56
2022/06/13 10:43:58;;;;;;;;;;;18.40;92.50;;;;;;5088401;27;37783;-56
2022/06/13 10:46:25;;;;;;;;;;;18.60;93.30;;;;;;5087925;27;36108;-56
2022/06/13 10:48:54;;;;;;;;;;;18.80;93.30;;;;;;5088551;27;36475;-56
2022/06/13 10:51:22;;;;;;;;;;;18.80;90.70;;;;;;5087128;28;38642;-56
2022/06/13 10:53:53;;;;;;;;;;;18.70;90.30;;;;;;5087668;27;36043;-56
2022/06/13 10:56:21;;;;;;;;;;;18.60;90.90;;;;;;5087927;27;36496;-56
2022/06/13 10:58:50;;;;;;;;;;;18.60;93.40;;;;;;5087335;27;37836;-56
2022/06/13 11:01:19;;;;;;;;;;;18.70;92.80;;;;;;5088381;27;37785;-56
2022/06/13 11:03:58;;;;;;;;;;;18.60;92.30;;;;;;5086949;27;36600;-56
2022/06/13 11:06:29;;;;;;;;;;;18.60;91.50;;;;;;5088381;27;36383;-56
2022/06/13 11:09:01;;;;;;;;;;;18.40;91.60;;;;;;5087697;28;38214;-55
2022/06/13 11:11:35;;;;;;;;;;;18.30;91.50;;;;;;5087611;27;38073;-55
2022/06/13 11:14:04;;;;;;;;;;;18.20;92.60;;;;;;5083954;27;36280;-56
2022/06/13 11:25:01;;;;;;;;;;;18.00;93.00;;;;;;5090391;28;37856;-56
2022/06/13 11:27:41;;;;;;;;;;;18.00;92.50;;;;;;5089191;27;37005;-56
2022/06/13 11:30:21;;;;;;;;;;;18.00;93.20;;;;;;5089217;27;37494;-56
2022/06/13 11:32:57;;;;;;;;;;;18.20;95.60;;;;;;5088152;27;38423;-55
2022/06/13 11:35:29;;;;;;;;;;;18.40;92.60;;;;;;5089162;27;38438;-55
2022/06/13 11:38:03;;;;;;;;;;;18.50;92.70;;;;;;5089388;27;36246;-56
2022/06/13 11:40:30;;;;;;;;;;;18.60;91.00;;;;;;5089489;27;39777;-55
2022/06/13 11:42:57;;;;;;;;;;;18.50;91.40;;;;;;5089079;27;36720;-56
2022/06/13 11:45:27;;;;;;;;;;;18.40;91.40;;;;;;5088664;27;37108;-55
2022/06/13 11:47:54;;;;;;;;;;;18.40;92.20;;;;;;5086908;28;37338;-55
2022/06/13 11:50:23;;;;;;;;;;;18.40;92.20;;;;;;5087131;27;37752;-56
2022/06/13 11:55:43;;;;;;;;;;;18.30;91.70;;;;;;5088036;28;37958;-56
2022/06/13 11:58:17;;;;;;;;;;;18.30;92.00;;;;;;5088039;27;38094;-56
2022/06/13 12:00:51;;;;;;;;;;;18.20;92.10;;;;;;5087898;27;39143;-56
2022/06/13 12:03:20;;;;;;;;;;;18.10;93.00;;;;;;5086276;27;41864;-56
2022/06/13 12:05:51;;;;;;;;;;;18.00;92.60;;;;;;5087611;28;37141;-56
2022/06/13 12:08:23;;;;;;;;;;;18.00;92.10;;;;;;5085320;27;36446;-56
2022/06/13 12:10:55;;;;;;;;;;;17.90;92.10;;;;;;5082459;27;37919;-56
2022/06/13 12:13:22;;;;;;;;;;;17.90;93.10;;;;;;5083845;27;39899;-56
2022/06/13 12:15:54;;;;;;;;;;;17.90;93.30;;;;;;5085978;27;37926;-57
2022/06/13 12:18:26;;;;;;;;;;;17.90;93.30;;;;;;5085396;27;35924;-56
2022/06/13 12:20:57;;;;;;;;;;;18.00;93.60;;;;;;5086324;27;38836;-56
2022/06/13 12:23:28;;;;;;;;;;;18.10;95.00;;;;;;5085128;27;38871;-55
2022/06/13 12:25:57;;;;;;;;;;;18.20;93.20;;;;;;5087395;27;37390;-56
2022/06/13 12:28:27;;;;;;;;;;;18.10;92.40;;;;;;5086964;27;35973;-56
2022/06/13 12:31:00;;;;;;;;;;;18.00;91.60;;;;;;5085837;27;36350;-55
2022/06/13 12:33:39;;;;;;;;;;;17.90;93.20;;;;;;5085746;27;39547;-56
2022/06/13 12:36:11;;;;;;;;;;;17.80;93.10;;;;;;5086122;28;36163;-56
2022/06/13 12:38:44;;;;;;;;;;;17.80;93.20;;;;;;5087120;27;36004;-55
2022/06/13 12:41:16;;;;;;;;;;;17.70;92.10;;;;;;5087467;27;40176;-56
2022/06/13 12:43:49;;;;;;;;;;;17.70;92.70;;;;;;5086690;27;36657;-56
2022/06/13 12:46:34;;;;;;;;;;;17.70;93.10;;;;;;5086687;27;38669;-56
2022/06/13 12:49:13;;;;;;;;;;;17.80;93.50;;;;;;5086067;27;35143;-54
2022/06/13 12:51:46;;;;;;;;;;;18.00;94.00;;;;;;5086814;27;38075;-55
2022/06/13 12:54:28;;;;;;;;;;;18.00;93.80;;;;;;5085382;28;37360;-54
2022/06/13 12:56:58;;;;;;;;;;;18.00;93.20;;;;;;5087249;27;39723;-54
2022/06/13 12:59:35;;;;;;;;;;;17.90;92.20;;;;;;5087568;27;36661;-56
2022/06/13 13:02:13;;;;;;;;;;;17.80;92.80;;;;;;5087205;27;37500;-56
2022/06/13 13:04:57;;;;;;;;;;;17.70;93.00;;;;;;5088058;28;38554;-56
2022/06/13 13:07:27;;;;;;;;;;;17.70;93.70;;;;;;5087063;28;36069;-56
2022/06/13 13:10:08;;;;;;;;;;;17.80;93.70;;;;;;5087097;27;36266;-55
2022/06/13 13:12:46;;;;;;;;;;;17.80;94.40;;;;;;5086196;27;37619;-56
2022/06/13 13:15:18;;;;;;;;;;;17.90;94.30;;;;;;5087667;27;38184;-55
2022/06/13 13:17:49;;;;;;;;;;;18.00;93.90;;;;;;5086833;27;37415;-56
2022/06/13 13:20:19;;;;;;;;;;;18.00;93.70;;;;;;5086815;27;36692;-56
2022/06/13 13:22:52;;;;;;;;;;;18.00;92.40;;;;;;5086907;27;37821;-56
2022/06/13 13:25:24;;;;;;;;;;;18.00;93.10;;;;;;5087300;27;39305;-56
2022/06/13 13:27:55;;;;;;;;;;;17.90;92.30;;;;;;5086413;28;40043;-55
2022/06/13 13:30:25;;;;;;;;;;;18.00;92.50;;;;;;5086933;27;38247;-56
2022/06/13 13:33:02;;;;;;;;;;;18.00;90.80;;;;;;5085994;27;37889;-56
2022/06/13 13:35:33;;;;;;;;;;;18.00;92.10;;;;;;5087420;27;39392;-55
2022/06/13 13:38:02;;;;;;;;;;;17.90;92.00;;;;;;5087390;27;37833;-55
2022/06/13 13:40:34;;;;;;;;;;;17.90;92.80;;;;;;5087061;27;35212;-56
2022/06/13 13:43:05;;;;;;;;;;;17.90;91.70;;;;;;5087847;27;39205;-56
2022/06/13 13:45:38;;;;;;;;;;;17.80;91.50;;;;;;5085757;27;36593;-55
2022/06/13 13:48:13;;;;;;;;;;;17.80;92.10;;;;;;5087098;27;36256;-55
2022/06/13 13:50:44;;;;;;;;;;;17.80;91.90;;;;;;5087803;27;37386;-55
2022/06/13 13:53:13;;;;;;;;;;;17.90;91.30;;;;;;5086947;27;38482;-55
2022/06/13 13:55:43;;;;;;;;;;;17.90;92.70;;;;;;5086853;27;38561;-55
2022/06/13 13:58:13;;;;;;;;;;;17.90;92.80;;;;;;5087164;27;36825;-54
2022/06/13 14:00:44;;;;;;;;;;;17.90;91.10;;;;;;5087113;27;35884;-54
2022/06/13 14:03:16;;;;;;;;;;;17.90;91.40;;;;;;5087129;27;38329;-54
2022/06/13 14:05:48;;;;;;;;;;;17.90;92.70;;;;;;5086480;27;37555;-55
2022/06/13 14:08:16;;;;;;;;;;;17.90;92.80;;;;;;5087741;27;37736;-55
2022/06/13 14:10:45;;;;;;;;;;;18.00;92.90;;;;;;5086690;27;36866;-55
2022/06/13 14:13:18;;;;;;;;;;;17.90;92.60;;;;;;5087146;27;37400;-55
2022/06/13 14:16:15;;;;;;;;;;;17.90;92.80;;;;;;5086931;27;39132;-55
2022/06/13 14:18:54;;;;;;;;;;;17.90;92.10;;;;;;5044272;28;37077;-54
2022/06/13 14:21:36;;;;;;;;;;;17.80;91.30;;;;;;5079191;27;35008;-55
2022/06/13 14:24:10;;;;;;;;;;;17.90;91.80;;;;;;5086297;27;39188;-55
2022/06/13 14:26:52;;;;;;;;;;;17.90;92.00;;;;;;5085781;27;39199;-55
2022/06/13 14:29:28;;;;;;;;;;;17.90;91.90;;;;;;5085093;27;37173;-55
2022/06/13 14:31:56;;;;;;;;;;;17.90;91.40;;;;;;5085886;27;36562;-55
2022/06/13 14:37:24;;;;;;;;;;;17.90;91.60;;;;;;5087004;28;39339;-55
2022/06/13 14:39:54;;;;;;;;;;;17.90;91.50;;;;;;5085591;27;39656;-55
2022/06/13 14:42:30;;;;;;;;;;;17.90;92.00;;;;;;5086034;27;37937;-55
2022/06/13 14:45:00;;;;;;;;;;;17.90;91.90;;;;;;5084701;27;37909;-55
2022/06/13 14:47:36;;;;;;;;;;;17.90;90.70;;;;;;5086525;27;36512;-55
2022/06/13 14:50:03;;;;;;;;;;;17.90;90.80;;;;;;5082355;27;37433;-55
2022/06/13 14:52:32;;;;;;;;;;;17.90;90.10;;;;;;5086580;28;35308;-55
2022/06/13 14:55:23;;;;;;;;;;;17.90;91.50;;;;;;5084926;28;38284;-55
2022/06/13 14:57:53;;;;;;;;;;;17.90;91.00;;;;;;5090660;27;40147;-56